createdAt,value
2023-05-01T00:00:06.067Z,11.29
2023-05-01T00:02:34.198Z,11.39
2023-05-01T00:05:02.270Z,11.50
2023-05-01T00:07:31.068Z,11.53
2023-05-01T00:09:59.349Z,11.74
2023-05-01T00:12:27.590Z,11.81
2023-05-01T00:14:55.694Z,11.92
2023-05-01T00:17:25.013Z,11.98
2023-05-01T00:19:53.601Z,12.12
2023-05-01T00:22:21.597Z,12.20
2023-05-01T00:24:50.304Z,12.17
2023-05-01T00:27:18.214Z,12.03
2023-05-01T00:29:46.492Z,12.09
2023-05-01T00:32:15.462Z,12.18
2023-05-01T00:34:46.155Z,12.11
2023-05-01T00:37:14.028Z,12.10
2023-05-01T00:39:41.908Z,12.29
2023-05-01T00:42:09.895Z,12.35
2023-05-01T00:44:37.921Z,12.38
2023-05-01T00:47:05.893Z,12.41
2023-05-01T00:49:34.290Z,12.48
2023-05-01T00:52:03.861Z,12.48
2023-05-01T00:54:31.772Z,12.58
2023-05-01T00:56:59.780Z,12.46
2023-05-01T00:59:27.797Z,12.52
2023-05-01T01:01:56.630Z,12.58
2023-05-01T01:04:24.897Z,12.60
2023-05-01T01:06:59.777Z,12.56
2023-05-01T01:09:39.974Z,12.53
2023-05-01T01:12:17.090Z,12.49
2023-05-01T01:14:52.107Z,12.51
2023-05-01T01:17:29.684Z,12.58
2023-05-01T01:20:15.166Z,12.51
2023-05-01T01:22:47.256Z,12.49
2023-05-01T01:25:48.556Z,12.47
2023-05-01T01:28:36.949Z,12.54
2023-05-01T01:31:15.419Z,12.28
2023-05-01T01:33:58.735Z,12.38
2023-05-01T01:36:40.161Z,12.40
2023-05-01T01:39:16.306Z,12.32
2023-05-01T01:41:50.409Z,12.25
2023-05-01T01:44:24.119Z,12.09
2023-05-01T01:46:55.416Z,12.07
2023-05-01T01:49:27.526Z,12.04
2023-05-01T01:51:58.043Z,11.66
2023-05-01T01:54:31.687Z,11.40
2023-05-01T01:57:03.450Z,10.95
2023-05-01T01:59:34.922Z,10.75
2023-05-01T02:02:05.307Z,10.67
2023-05-01T02:04:36.249Z,10.58
2023-05-01T02:07:06.185Z,10.63
2023-05-01T02:09:36.597Z,10.75
2023-05-01T02:12:07.857Z,10.65
2023-05-01T02:14:36.738Z,10.54
2023-05-01T02:17:06.028Z,10.28
2023-05-01T02:19:36.379Z,10.16
2023-05-01T02:22:06.101Z,10.09
2023-05-01T02:24:35.924Z,9.90
2023-05-01T02:27:08.609Z,9.99
2023-05-01T02:29:37.807Z,9.84
2023-05-01T02:32:06.216Z,10.06
2023-05-01T02:34:37.222Z,10.16
2023-05-01T02:37:07.452Z,10.33
2023-05-01T02:39:36.109Z,10.27
2023-05-01T02:42:05.705Z,10.18
2023-05-01T02:44:40.996Z,10.22
2023-05-01T02:47:10.164Z,10.30
2023-05-01T02:49:41.021Z,10.18
2023-05-01T02:52:09.635Z,10.13
2023-05-01T02:54:37.803Z,10.19
2023-05-01T02:57:06.366Z,10.16
2023-05-01T02:59:35.414Z,10.27
2023-05-01T03:02:03.322Z,10.34
2023-05-01T03:04:31.595Z,10.41
2023-05-01T03:07:00.919Z,10.43
2023-05-01T03:09:28.762Z,10.50
2023-05-01T03:11:56.761Z,10.54
2023-05-01T03:14:25.214Z,10.59
2023-05-01T03:16:53.211Z,10.62
2023-05-01T03:19:21.512Z,10.32
2023-05-01T03:21:49.404Z,10.37
2023-05-01T03:24:18.652Z,10.27
2023-05-01T03:26:46.548Z,10.38
2023-05-01T03:29:14.460Z,10.27
2023-05-01T03:31:42.424Z,10.40
2023-05-01T03:34:10.361Z,10.32
2023-05-01T03:36:38.275Z,10.48
2023-05-01T03:39:08.595Z,10.47
2023-05-01T03:41:37.924Z,10.48
2023-05-01T03:44:06.075Z,10.53
2023-05-01T03:46:34.126Z,10.65
2023-05-01T03:49:02.113Z,10.70
2023-05-01T03:51:30.028Z,10.59
2023-05-01T03:53:58.899Z,10.86
2023-05-01T03:56:27.016Z,10.96
2023-05-01T03:58:57.776Z,10.76
2023-05-01T04:01:26.456Z,10.60
2023-05-01T04:03:54.524Z,10.78
2023-05-01T04:06:23.056Z,10.82
2023-05-01T04:08:51.148Z,11.12
2023-05-01T04:11:19.026Z,11.15
2023-05-01T04:13:47.196Z,11.27
2023-05-01T04:16:16.633Z,11.29
2023-05-01T04:18:44.639Z,10.98
2023-05-01T04:21:14.597Z,11.09
2023-05-01T04:23:42.575Z,11.43
2023-05-01T04:26:10.503Z,11.51
2023-05-01T04:28:38.426Z,11.53
2023-05-01T04:31:06.916Z,11.75
2023-05-01T04:33:36.311Z,11.89
2023-05-01T04:36:04.273Z,11.91
2023-05-01T04:38:32.375Z,11.63
2023-05-01T04:41:00.281Z,11.67
2023-05-01T04:43:28.252Z,11.68
2023-05-01T04:45:56.242Z,11.42
2023-05-01T04:48:24.157Z,11.40
2023-05-01T04:50:53.456Z,11.60
2023-05-01T04:53:21.432Z,11.80
2023-05-01T04:55:49.368Z,11.86
2023-05-01T04:58:17.365Z,12.10
2023-05-01T05:00:45.324Z,12.07
2023-05-01T05:03:13.357Z,12.07
2023-05-01T05:05:41.272Z,11.98
2023-05-01T05:08:10.643Z,12.26
2023-05-01T05:10:38.585Z,12.39
2023-05-01T05:13:06.554Z,12.51
2023-05-01T05:15:34.420Z,13.19
2023-05-01T05:18:02.489Z,13.93
2023-05-01T05:20:30.523Z,14.34
2023-05-01T05:22:58.625Z,15.15
2023-05-01T05:25:27.979Z,15.56
2023-05-01T05:27:55.908Z,16.32
2023-05-01T05:30:23.950Z,17.19
2023-05-01T05:32:52.042Z,18.96
2023-05-01T05:35:20.080Z,19.85
2023-05-01T05:37:48.048Z,19.31
2023-05-01T05:40:16.232Z,18.28
2023-05-01T05:42:45.485Z,17.88
2023-05-01T05:45:13.352Z,17.55
2023-05-01T05:47:41.319Z,17.08
2023-05-01T05:50:15.437Z,17.65
2023-05-01T05:52:43.378Z,18.12
2023-05-01T05:55:11.374Z,19.46
2023-05-01T05:57:39.272Z,20.37
2023-05-01T06:00:10.686Z,20.40
2023-05-01T06:02:38.778Z,19.73
2023-05-01T06:05:07.544Z,19.59
2023-05-01T06:07:36.062Z,18.55
2023-05-01T06:10:05.469Z,17.46
2023-05-01T06:12:35.183Z,17.48
2023-05-01T06:15:06.492Z,17.61
2023-05-01T06:17:37.560Z,17.58
2023-05-01T06:20:06.784Z,17.45
2023-05-01T06:22:34.757Z,17.47
2023-05-01T06:25:02.729Z,17.58
2023-05-01T06:27:30.618Z,17.69
2023-05-01T06:29:58.520Z,17.13
2023-05-01T06:32:26.538Z,16.92
2023-05-01T06:34:56.033Z,17.29
2023-05-01T06:37:23.999Z,17.11
2023-05-01T06:39:51.886Z,17.12
2023-05-01T06:42:21.575Z,17.35
2023-05-01T06:44:49.463Z,17.43
2023-05-01T06:47:17.421Z,17.22
2023-05-01T06:49:45.370Z,17.33
2023-05-01T06:52:14.627Z,17.00
2023-05-01T06:54:42.543Z,17.15
2023-05-01T06:57:10.453Z,17.06
2023-05-01T06:59:38.405Z,16.99
2023-05-01T07:02:06.307Z,16.87
2023-05-01T07:04:34.626Z,17.11
2023-05-01T07:07:03.248Z,17.40
2023-05-01T07:09:32.533Z,17.22
2023-05-01T07:12:00.485Z,17.27
2023-05-01T07:14:28.427Z,17.52
2023-05-01T07:16:56.363Z,17.67
2023-05-01T07:19:24.316Z,17.87
2023-05-01T07:21:52.217Z,17.63
2023-05-01T07:24:20.442Z,17.52
2023-05-01T07:26:49.714Z,17.51
2023-05-01T07:29:17.668Z,17.63
2023-05-01T07:31:46.941Z,17.55
2023-05-01T07:34:15.211Z,17.46
2023-05-01T07:36:43.110Z,17.56
2023-05-01T07:39:11.087Z,17.74
2023-05-01T07:41:38.973Z,18.05
2023-05-01T07:44:08.272Z,18.28
2023-05-01T07:46:37.026Z,18.66
2023-05-01T07:49:05.461Z,18.93
2023-05-01T07:51:33.464Z,18.85
2023-05-01T07:54:04.551Z,18.87
2023-05-01T07:56:32.725Z,18.54
2023-05-01T07:59:00.642Z,18.54
2023-05-01T08:01:30.049Z,18.40
2023-05-01T08:03:58.105Z,18.45
2023-05-01T08:06:26.514Z,18.54
2023-05-01T08:08:54.448Z,18.71
2023-05-01T08:11:22.859Z,18.68
2023-05-01T08:13:51.434Z,18.62
2023-05-01T08:16:21.734Z,18.68
2023-05-01T08:18:51.542Z,18.70
2023-05-01T08:21:19.382Z,18.50
2023-05-01T08:23:47.336Z,18.91
2023-05-01T08:26:15.302Z,19.32
2023-05-01T08:28:43.387Z,19.50
2023-05-01T08:31:11.618Z,19.00
2023-05-01T08:33:42.087Z,19.40
2023-05-01T08:36:12.297Z,19.57
2023-05-01T08:38:40.362Z,19.62
2023-05-01T08:41:08.262Z,19.96
2023-05-01T08:43:36.564Z,19.75
2023-05-01T08:46:08.219Z,19.31
2023-05-01T08:48:37.918Z,19.19
2023-05-01T08:51:07.248Z,19.56
2023-05-01T08:53:38.397Z,20.00
2023-05-01T08:56:07.854Z,20.18
2023-05-01T08:58:36.949Z,20.06
2023-05-01T09:01:05.797Z,19.93
2023-05-01T09:03:34.658Z,20.08
2023-05-01T09:06:04.420Z,20.19
2023-05-01T09:08:32.517Z,20.27
2023-05-01T09:11:02.816Z,20.30
2023-05-01T09:13:31.117Z,19.87
2023-05-01T09:16:00.483Z,19.78
2023-05-01T09:18:28.736Z,19.86
2023-05-01T09:20:56.979Z,20.13
2023-05-01T09:23:24.966Z,20.08
2023-05-01T09:25:53.597Z,20.07
2023-05-01T09:28:41.709Z,19.86
2023-05-01T09:31:23.753Z,20.04
2023-05-01T09:33:55.097Z,19.94
2023-05-01T09:36:24.558Z,20.08
2023-05-01T09:38:52.665Z,20.25
2023-05-01T09:41:22.409Z,20.91
2023-05-01T09:43:57.113Z,20.77
2023-05-01T09:46:26.174Z,21.43
2023-05-01T09:48:56.433Z,21.19
2023-05-01T09:51:26.877Z,21.46
2023-05-01T09:53:56.677Z,21.02
2023-05-01T09:56:25.024Z,21.26
2023-05-01T09:58:56.477Z,21.52
2023-05-01T10:01:40.391Z,21.51
2023-05-01T10:04:08.843Z,21.58
2023-05-01T10:06:37.063Z,21.40
2023-05-01T10:09:07.041Z,20.84
2023-05-01T10:11:49.303Z,21.28
2023-05-01T10:14:18.771Z,21.44
2023-05-01T10:16:47.066Z,21.00
2023-05-01T10:19:18.049Z,20.98
2023-05-01T10:21:45.977Z,20.97
2023-05-01T10:24:15.233Z,20.26
2023-05-01T10:26:43.994Z,19.99
2023-05-01T10:29:13.145Z,20.14
2023-05-01T10:31:42.826Z,20.44
2023-05-01T10:34:13.544Z,20.41
2023-05-01T10:36:48.872Z,20.04
2023-05-01T10:39:31.399Z,19.91
2023-05-01T10:42:04.819Z,19.81
2023-05-01T10:44:34.932Z,19.99
2023-05-01T10:47:37.772Z,20.32
2023-05-01T10:50:08.721Z,20.43
2023-05-01T10:53:14.587Z,20.30
2023-05-01T10:55:43.958Z,20.18
2023-05-01T10:58:12.004Z,20.49
2023-05-01T11:00:39.959Z,20.57
2023-05-01T11:03:38.980Z,20.71
2023-05-01T11:06:09.261Z,20.85
2023-05-01T11:08:38.774Z,21.36
2023-05-01T11:11:51.975Z,21.56
2023-05-01T11:14:19.985Z,21.69
2023-05-01T11:16:49.432Z,20.76
2023-05-01T11:19:52.511Z,20.04
2023-05-01T11:22:21.963Z,20.28
2023-05-01T11:24:50.334Z,20.47
2023-05-01T11:27:18.457Z,20.46
2023-05-01T11:29:49.676Z,20.16
2023-05-01T11:32:27.177Z,19.78
2023-05-01T11:34:55.859Z,19.89
2023-05-01T11:37:44.339Z,19.85
2023-05-01T11:40:22.615Z,19.80
2023-05-01T11:42:52.217Z,19.75
2023-05-01T11:45:20.911Z,19.81
2023-05-01T11:47:49.893Z,19.84
2023-05-01T11:50:18.131Z,19.96
2023-05-01T11:52:49.771Z,19.89
2023-05-01T11:55:17.926Z,19.73
2023-05-01T11:57:50.150Z,20.01
2023-05-01T12:00:27.749Z,20.37
2023-05-01T12:03:04.084Z,20.26
2023-05-01T12:05:35.499Z,19.61
2023-05-01T12:08:18.729Z,19.78
2023-05-01T12:10:48.559Z,20.15
2023-05-01T12:13:17.909Z,20.32
2023-05-01T12:15:47.327Z,20.41
2023-05-01T12:18:17.196Z,20.33
2023-05-01T12:20:47.264Z,20.59
2023-05-01T12:23:17.516Z,20.74
2023-05-01T12:25:46.850Z,20.96
2023-05-01T12:28:15.991Z,21.02
2023-05-01T12:30:45.986Z,20.93
2023-05-01T12:33:15.234Z,20.65
2023-05-01T12:35:45.474Z,20.55
2023-05-01T12:38:16.623Z,20.35
2023-05-01T12:40:55.850Z,20.49
2023-05-01T12:43:30.736Z,20.56
2023-05-01T12:45:58.892Z,20.83
2023-05-01T12:48:27.959Z,20.73
2023-05-01T12:50:56.854Z,20.74
2023-05-01T12:53:27.603Z,20.62
2023-05-01T12:55:57.381Z,20.50
2023-05-01T12:58:35.915Z,20.42
2023-05-01T13:01:11.987Z,20.44
2023-05-01T13:03:44.983Z,20.47
2023-05-01T13:06:13.041Z,20.49
2023-05-01T13:08:41.385Z,20.41
2023-05-01T13:11:14.064Z,20.60
2023-05-01T13:13:42.467Z,20.58
2023-05-01T13:16:13.269Z,20.75
2023-05-01T13:18:46.301Z,20.84
2023-05-01T13:21:17.235Z,20.50
2023-05-01T13:23:54.810Z,20.56
2023-05-01T13:26:30.468Z,20.73
2023-05-01T13:29:00.090Z,20.82
2023-05-01T13:31:29.497Z,20.86
2023-05-01T13:33:59.989Z,20.90
2023-05-01T13:36:33.439Z,20.60
2023-05-01T13:39:01.568Z,20.35
2023-05-01T13:41:30.587Z,20.18
2023-05-01T13:43:58.831Z,20.29
2023-05-01T13:46:28.255Z,20.52
2023-05-01T13:49:08.912Z,20.74
2023-05-01T13:51:38.300Z,20.63
2023-05-01T13:54:08.104Z,21.13
2023-05-01T13:56:36.590Z,21.30
2023-05-01T13:59:04.990Z,21.36
2023-05-01T14:01:33.368Z,20.98
2023-05-01T14:04:04.355Z,21.20
2023-05-01T14:06:32.449Z,21.45
2023-05-01T14:09:01.118Z,21.29
2023-05-01T14:11:29.730Z,21.18
2023-05-01T14:14:00.871Z,21.33
2023-05-01T14:16:31.643Z,21.54
2023-05-01T14:18:59.670Z,21.45
2023-05-01T14:21:29.220Z,21.54
2023-05-01T14:23:58.300Z,21.24
2023-05-01T14:26:26.547Z,21.23
2023-05-01T14:28:54.696Z,21.19
2023-05-01T14:31:27.198Z,20.88
2023-05-01T14:33:57.872Z,20.70
2023-05-01T14:36:26.698Z,20.70
2023-05-01T14:38:57.696Z,20.87
2023-05-01T14:41:25.703Z,20.88
2023-05-01T14:43:54.333Z,20.66
2023-05-01T14:46:31.926Z,20.64
2023-05-01T14:49:01.002Z,20.89
2023-05-01T14:51:31.288Z,21.08
2023-05-01T14:54:00.753Z,20.96
2023-05-01T14:56:28.644Z,21.07
2023-05-01T14:58:56.589Z,20.97
2023-05-01T15:01:24.572Z,21.19
2023-05-01T15:03:53.475Z,21.17
2023-05-01T15:06:21.503Z,21.49
2023-05-01T15:08:49.433Z,21.26
2023-05-01T15:11:20.894Z,21.32
2023-05-01T15:13:50.501Z,21.17
2023-05-01T15:16:18.672Z,20.97
2023-05-01T15:18:46.645Z,21.06
2023-05-01T15:21:14.542Z,21.19
2023-05-01T15:23:45.259Z,21.04
2023-05-01T15:26:13.935Z,20.67
2023-05-01T15:28:43.363Z,20.88
2023-05-01T15:31:11.520Z,20.74
2023-05-01T15:33:39.520Z,20.77
2023-05-01T15:36:07.826Z,20.82
2023-05-01T15:38:35.701Z,20.72
2023-05-01T15:41:03.660Z,20.66
2023-05-01T15:43:31.578Z,20.57
2023-05-01T15:46:00.899Z,20.57
2023-05-01T15:48:28.915Z,20.66
2023-05-01T15:50:56.869Z,20.62
2023-05-01T15:53:24.797Z,20.63
2023-05-01T15:55:53.347Z,20.69
2023-05-01T15:58:24.707Z,20.59
2023-05-01T16:00:52.917Z,20.73
2023-05-01T16:03:22.374Z,20.80
2023-05-01T16:05:50.637Z,20.68
2023-05-01T16:08:19.060Z,20.77
2023-05-01T16:10:47.111Z,20.78
2023-05-01T16:13:15.494Z,20.46
2023-05-01T16:15:43.442Z,20.33
2023-05-01T16:18:19.352Z,20.47
2023-05-01T16:20:48.673Z,20.55
2023-05-01T16:23:16.824Z,20.57
2023-05-01T16:25:44.911Z,20.59
2023-05-01T16:28:13.812Z,20.51
2023-05-01T16:30:42.962Z,20.02
2023-05-01T16:33:18.562Z,20.04
2023-05-01T16:35:50.278Z,19.97
2023-05-01T16:38:18.581Z,20.00
2023-05-01T16:40:48.073Z,19.95
2023-05-01T16:43:16.013Z,19.77
2023-05-01T16:45:43.922Z,19.53
2023-05-01T16:48:15.034Z,19.45
2023-05-01T16:50:43.038Z,19.30
2023-05-01T16:53:12.335Z,19.26
2023-05-01T16:55:40.175Z,19.44
2023-05-01T16:58:08.328Z,19.31
2023-05-01T17:00:36.376Z,19.35
2023-05-01T17:03:04.402Z,19.26
2023-05-01T17:05:32.437Z,19.07
2023-05-01T17:08:00.322Z,18.98
2023-05-01T17:10:29.860Z,19.07
2023-05-01T17:12:57.761Z,19.12
2023-05-01T17:15:25.674Z,19.15
2023-05-01T17:17:53.577Z,19.20
2023-05-01T17:20:21.840Z,19.06
2023-05-01T17:22:49.918Z,18.99
2023-05-01T17:25:17.888Z,18.83
2023-05-01T17:27:47.250Z,18.90
2023-05-01T17:30:15.340Z,19.01
2023-05-01T17:32:43.533Z,19.04
2023-05-01T17:35:11.617Z,18.89
2023-05-01T17:37:40.527Z,18.71
2023-05-01T17:40:11.083Z,18.67
2023-05-01T17:42:38.992Z,18.54
2023-05-01T17:45:10.406Z,18.59
2023-05-01T17:47:41.710Z,18.45
2023-05-01T17:50:12.105Z,18.38
2023-05-01T17:52:40.198Z,18.34
2023-05-01T17:55:08.852Z,18.47
2023-05-01T17:57:37.073Z,18.48
2023-05-01T18:00:06.665Z,18.47
2023-05-01T18:02:36.291Z,18.39
2023-05-01T18:05:05.421Z,18.19
2023-05-01T18:07:33.388Z,18.12
2023-05-01T18:10:01.606Z,17.93
2023-05-01T18:12:30.850Z,18.07
2023-05-01T18:14:58.801Z,18.15
2023-05-01T18:17:26.768Z,18.18
2023-05-01T18:19:56.189Z,18.04
2023-05-01T18:22:24.124Z,18.08
2023-05-01T18:24:52.032Z,17.97
2023-05-01T18:27:19.955Z,17.85
2023-05-01T18:29:47.857Z,17.74
2023-05-01T18:32:15.827Z,17.48
2023-05-01T18:34:45.564Z,17.12
2023-05-01T18:37:15.489Z,17.08
2023-05-01T18:39:43.436Z,16.93
2023-05-01T18:42:11.272Z,16.66
2023-05-01T18:44:39.151Z,16.72
2023-05-01T18:47:07.082Z,16.76
2023-05-01T18:49:35.152Z,16.81
2023-05-01T18:52:03.412Z,16.80
2023-05-01T18:54:32.701Z,16.43
2023-05-01T18:57:00.656Z,16.38
2023-05-01T18:59:31.027Z,16.30
2023-05-01T19:01:59.155Z,16.42
2023-05-01T19:04:27.106Z,16.07
2023-05-01T19:06:55.165Z,15.75
2023-05-01T19:09:23.264Z,15.59
2023-05-01T19:11:52.598Z,15.52
2023-05-01T19:14:23.046Z,15.57
2023-05-01T19:16:51.010Z,15.53
2023-05-01T19:19:18.966Z,15.40
2023-05-01T19:21:46.902Z,14.97
2023-05-01T19:24:14.766Z,15.06
2023-05-01T19:26:42.778Z,14.99
2023-05-01T19:29:12.373Z,15.01
2023-05-01T19:31:40.296Z,14.86
2023-05-01T19:34:08.423Z,14.87
2023-05-01T19:36:36.498Z,14.71
2023-05-01T19:39:05.397Z,14.84
2023-05-01T19:41:33.712Z,14.74
2023-05-01T19:44:01.892Z,14.85
2023-05-01T19:46:31.177Z,14.83
2023-05-01T19:48:59.127Z,14.60
2023-05-01T19:51:28.138Z,14.69
2023-05-01T19:53:56.927Z,14.77
2023-05-01T19:56:25.371Z,14.53
2023-05-01T19:58:54.820Z,14.52
2023-05-01T20:01:22.761Z,14.34
2023-05-01T20:03:52.231Z,14.06
2023-05-01T20:06:20.215Z,14.00
2023-05-01T20:08:48.476Z,14.00
2023-05-01T20:11:16.347Z,14.06
2023-05-01T20:13:45.522Z,14.02
2023-05-01T20:16:13.448Z,13.87
2023-05-01T20:18:41.337Z,13.86
2023-05-01T20:21:10.692Z,13.93
2023-05-01T20:23:38.996Z,13.88
2023-05-01T20:26:07.300Z,13.90
2023-05-01T20:28:35.192Z,13.72
2023-05-01T20:31:03.656Z,13.42
2023-05-01T20:33:31.558Z,13.20
2023-05-01T20:35:59.436Z,13.15
2023-05-01T20:38:29.442Z,13.09
2023-05-01T20:40:57.390Z,12.97
2023-05-01T20:43:25.308Z,12.93
2023-05-01T20:45:53.292Z,12.87
2023-05-01T20:48:21.564Z,13.14
2023-05-01T20:50:49.952Z,13.26
2023-05-01T20:53:19.018Z,13.33
2023-05-01T20:55:49.922Z,13.47
2023-05-01T20:58:17.852Z,13.47
2023-05-01T21:00:45.751Z,13.46
2023-05-01T21:03:15.410Z,13.25
2023-05-01T21:05:43.469Z,13.19
2023-05-01T21:08:11.416Z,13.06
2023-05-01T21:10:40.272Z,12.85
2023-05-01T21:13:09.589Z,12.87
2023-05-01T21:15:41.655Z,12.84
2023-05-01T21:18:12.356Z,12.81
2023-05-01T21:20:40.698Z,12.68
2023-05-01T21:23:08.879Z,12.83
2023-05-01T21:25:36.789Z,12.73
2023-05-01T21:28:06.386Z,12.68
2023-05-01T21:30:37.420Z,12.65
2023-05-01T21:33:06.597Z,12.49
2023-05-01T21:35:34.938Z,12.30
2023-05-01T21:38:05.075Z,12.05
2023-05-01T21:40:38.428Z,12.18
2023-05-01T21:43:07.009Z,12.25
2023-05-01T21:45:40.282Z,12.27
2023-05-01T21:48:09.522Z,12.21
2023-05-01T21:50:38.675Z,12.18
2023-05-01T21:53:07.971Z,12.00
2023-05-01T21:55:36.021Z,11.84
2023-05-01T21:58:04.049Z,11.67
2023-05-01T22:00:31.995Z,11.92
2023-05-01T22:03:02.281Z,11.99
2023-05-01T22:05:32.902Z,12.06
2023-05-01T22:08:01.034Z,12.07
2023-05-01T22:10:29.763Z,12.14
2023-05-01T22:12:57.651Z,12.05
2023-05-01T22:15:25.885Z,11.99
2023-05-01T22:17:53.869Z,11.91
2023-05-01T22:20:23.358Z,11.83
2023-05-01T22:22:51.316Z,11.76
2023-05-01T22:25:19.235Z,11.73
2023-05-01T22:27:47.217Z,11.63
2023-05-01T22:30:15.150Z,11.59
2023-05-01T22:32:43.121Z,11.52
2023-05-01T22:35:11.265Z,11.57
2023-05-01T22:37:40.618Z,11.53
2023-05-01T22:40:09.634Z,11.55
2023-05-01T22:42:37.628Z,11.61
2023-05-01T22:45:07.118Z,11.80
2023-05-01T22:47:35.146Z,11.65
2023-05-01T22:50:03.324Z,11.72
2023-05-01T22:52:31.480Z,11.88
2023-05-01T22:55:00.780Z,11.89
2023-05-01T22:57:28.792Z,11.95
2023-05-01T22:59:56.833Z,11.70
2023-05-01T23:02:24.920Z,11.94
2023-05-01T23:04:52.820Z,11.74
2023-05-01T23:07:20.708Z,11.50
2023-05-01T23:09:48.928Z,11.33
2023-05-01T23:12:23.643Z,11.05
2023-05-01T23:14:51.517Z,11.03
2023-05-01T23:17:19.386Z,11.15
2023-05-01T23:19:47.327Z,10.99
2023-05-01T23:22:15.398Z,11.19
2023-05-01T23:24:47.691Z,11.48
2023-05-01T23:27:16.472Z,11.49
2023-05-01T23:29:53.982Z,11.40
2023-05-01T23:32:26.197Z,11.19
2023-05-01T23:34:54.622Z,11.33
2023-05-01T23:37:22.738Z,11.26
2023-05-01T23:39:52.506Z,11.27
2023-05-01T23:42:20.899Z,11.18
2023-05-01T23:44:50.353Z,11.33
2023-05-01T23:47:18.474Z,11.22
2023-05-01T23:49:46.441Z,11.03
2023-05-01T23:52:14.355Z,11.03
2023-05-01T23:54:42.218Z,10.92
2023-05-01T23:57:10.376Z,11.01
2023-05-01T23:59:38.574Z,10.95
